sensor_id;sensor_type;location;lat;lon;timestamp;P1;durP1;ratioP1;P2;durP2;ratioP2
47383;SDS011;33129;52.232;5.192;2022-08-01T00:01:24;9.80;;;5.53;;
47383;SDS011;33129;52.232;5.192;2022-08-01T00:03:50;10.32;;;5.75;;
47383;SDS011;33129;52.232;5.192;2022-08-01T00:06:16;9.05;;;5.70;;
47383;SDS011;33129;52.232;5.192;2022-08-01T00:08:41;9.68;;;5.50;;
47383;SDS011;33129;52.232;5.192;2022-08-01T00:11:07;9.10;;;5.80;;
47383;SDS011;33129;52.232;5.192;2022-08-01T00:13:34;9.88;;;6.28;;
47383;SDS011;33129;52.232;5.192;2022-08-01T00:16:00;11.00;;;6.35;;
47383;SDS011;33129;52.232;5.192;2022-08-01T00:18:26;11.45;;;6.50;;
47383;SDS011;33129;52.232;5.192;2022-08-01T00:20:52;15.32;;;6.72;;
47383;SDS011;33129;52.232;5.192;2022-08-01T00:23:17;12.48;;;6.70;;
47383;SDS011;33129;52.232;5.192;2022-08-01T00:25:43;12.05;;;6.88;;
47383;SDS011;33129;52.232;5.192;2022-08-01T00:28:09;10.18;;;5.88;;
47383;SDS011;33129;52.232;5.192;2022-08-01T00:30:35;11.30;;;6.63;;
47383;SDS011;33129;52.232;5.192;2022-08-01T00:33:02;12.18;;;7.85;;
47383;SDS011;33129;52.232;5.192;2022-08-01T00:35:28;11.73;;;7.00;;
47383;SDS011;33129;52.232;5.192;2022-08-01T00:37:53;13.18;;;7.32;;
47383;SDS011;33129;52.232;5.192;2022-08-01T00:40:19;14.43;;;6.95;;
47383;SDS011;33129;52.232;5.192;2022-08-01T00:42:45;12.55;;;7.03;;
47383;SDS011;33129;52.232;5.192;2022-08-01T00:45:11;13.25;;;7.25;;
47383;SDS011;33129;52.232;5.192;2022-08-01T00:47:37;11.93;;;7.25;;
47383;SDS011;33129;52.232;5.192;2022-08-01T00:50:04;13.32;;;7.78;;
47383;SDS011;33129;52.232;5.192;2022-08-01T00:52:30;11.48;;;6.80;;
47383;SDS011;33129;52.232;5.192;2022-08-01T00:54:57;11.55;;;6.53;;
47383;SDS011;33129;52.232;5.192;2022-08-01T00:57:23;15.10;;;7.25;;
47383;SDS011;33129;52.232;5.192;2022-08-01T00:59:49;13.02;;;6.90;;
47383;SDS011;33129;52.232;5.192;2022-08-01T01:02:15;14.23;;;7.22;;
47383;SDS011;33129;52.232;5.192;2022-08-01T01:04:41;9.55;;;6.38;;
47383;SDS011;33129;52.232;5.192;2022-08-01T01:07:20;11.27;;;7.10;;
47383;SDS011;33129;52.232;5.192;2022-08-01T01:10:09;12.40;;;6.88;;
47383;SDS011;33129;52.232;5.192;2022-08-01T01:16:00;12.15;;;7.65;;
47383;SDS011;33129;52.232;5.192;2022-08-01T01:18:27;13.48;;;8.32;;
47383;SDS011;33129;52.232;5.192;2022-08-01T01:27:02;14.73;;;7.72;;
47383;SDS011;33129;52.232;5.192;2022-08-01T01:29:42;13.82;;;8.63;;
47383;SDS011;33129;52.232;5.192;2022-08-01T01:32:22;10.18;;;6.38;;
47383;SDS011;33129;52.232;5.192;2022-08-01T01:34:58;13.95;;;8.15;;
47383;SDS011;33129;52.232;5.192;2022-08-01T01:37:27;14.63;;;8.20;;
47383;SDS011;33129;52.232;5.192;2022-08-01T01:39:55;12.77;;;7.20;;
47383;SDS011;33129;52.232;5.192;2022-08-01T01:42:23;13.05;;;7.07;;
47383;SDS011;33129;52.232;5.192;2022-08-01T01:44:51;10.90;;;6.60;;
47383;SDS011;33129;52.232;5.192;2022-08-01T01:47:19;13.52;;;7.18;;
47383;SDS011;33129;52.232;5.192;2022-08-01T01:49:47;12.45;;;6.60;;
47383;SDS011;33129;52.232;5.192;2022-08-01T01:52:16;12.00;;;7.45;;
47383;SDS011;33129;52.232;5.192;2022-08-01T01:54:45;14.48;;;7.68;;
47383;SDS011;33129;52.232;5.192;2022-08-01T01:57:15;14.63;;;6.93;;
47383;SDS011;33129;52.232;5.192;2022-08-01T01:59:44;11.23;;;6.85;;
47383;SDS011;33129;52.232;5.192;2022-08-01T02:02:11;10.68;;;7.18;;
47383;SDS011;33129;52.232;5.192;2022-08-01T02:04:42;13.13;;;7.90;;
47383;SDS011;33129;52.232;5.192;2022-08-01T02:07:12;12.20;;;6.60;;
47383;SDS011;33129;52.232;5.192;2022-08-01T02:09:42;13.10;;;7.32;;
47383;SDS011;33129;52.232;5.192;2022-08-01T02:12:12;12.80;;;7.47;;
47383;SDS011;33129;52.232;5.192;2022-08-01T02:14:39;12.85;;;7.82;;
47383;SDS011;33129;52.232;5.192;2022-08-01T02:17:09;14.95;;;9.23;;
47383;SDS011;33129;52.232;5.192;2022-08-01T02:19:37;13.52;;;8.70;;
47383;SDS011;33129;52.232;5.192;2022-08-01T02:24:45;11.15;;;7.50;;
47383;SDS011;33129;52.232;5.192;2022-08-01T02:27:37;13.30;;;7.90;;
47383;SDS011;33129;52.232;5.192;2022-08-01T02:30:10;13.10;;;7.53;;
47383;SDS011;33129;52.232;5.192;2022-08-01T02:32:58;13.38;;;7.15;;
47383;SDS011;33129;52.232;5.192;2022-08-01T02:35:37;14.50;;;7.97;;
47383;SDS011;33129;52.232;5.192;2022-08-01T02:38:06;9.18;;;6.28;;
47383;SDS011;33129;52.232;5.192;2022-08-01T02:40:36;11.23;;;7.18;;
47383;SDS011;33129;52.232;5.192;2022-08-01T02:43:06;11.38;;;6.90;;
47383;SDS011;33129;52.232;5.192;2022-08-01T02:45:35;11.98;;;6.88;;
47383;SDS011;33129;52.232;5.192;2022-08-01T02:48:09;11.63;;;6.82;;
47383;SDS011;33129;52.232;5.192;2022-08-01T02:50:38;12.30;;;7.28;;
47383;SDS011;33129;52.232;5.192;2022-08-01T02:53:07;12.80;;;6.97;;
47383;SDS011;33129;52.232;5.192;2022-08-01T02:55:36;10.55;;;6.47;;
47383;SDS011;33129;52.232;5.192;2022-08-01T02:58:04;9.93;;;6.32;;
47383;SDS011;33129;52.232;5.192;2022-08-01T03:00:33;12.38;;;7.57;;
47383;SDS011;33129;52.232;5.192;2022-08-01T03:03:00;11.80;;;7.70;;
47383;SDS011;33129;52.232;5.192;2022-08-01T03:05:28;10.82;;;7.45;;
47383;SDS011;33129;52.232;5.192;2022-08-01T03:07:56;13.57;;;7.78;;
47383;SDS011;33129;52.232;5.192;2022-08-01T03:10:29;11.13;;;6.93;;
47383;SDS011;33129;52.232;5.192;2022-08-01T03:15:24;12.43;;;6.75;;
47383;SDS011;33129;52.232;5.192;2022-08-01T03:17:52;12.02;;;7.47;;
47383;SDS011;33129;52.232;5.192;2022-08-01T03:20:20;11.25;;;6.63;;
47383;SDS011;33129;52.232;5.192;2022-08-01T03:22:49;11.13;;;7.20;;
47383;SDS011;33129;52.232;5.192;2022-08-01T03:25:18;10.40;;;7.22;;
47383;SDS011;33129;52.232;5.192;2022-08-01T03:27:45;13.13;;;7.43;;
47383;SDS011;33129;52.232;5.192;2022-08-01T03:30:19;12.02;;;7.68;;
47383;SDS011;33129;52.232;5.192;2022-08-01T03:32:47;11.23;;;8.23;;
47383;SDS011;33129;52.232;5.192;2022-08-01T03:35:13;12.68;;;8.75;;
47383;SDS011;33129;52.232;5.192;2022-08-01T03:37:42;10.57;;;7.28;;
47383;SDS011;33129;52.232;5.192;2022-08-01T03:40:24;14.15;;;8.30;;
47383;SDS011;33129;52.232;5.192;2022-08-01T03:42:58;15.43;;;7.72;;
47383;SDS011;33129;52.232;5.192;2022-08-01T03:45:34;11.60;;;7.25;;
47383;SDS011;33129;52.232;5.192;2022-08-01T03:48:09;11.95;;;7.07;;
47383;SDS011;33129;52.232;5.192;2022-08-01T03:50:39;10.68;;;7.30;;
47383;SDS011;33129;52.232;5.192;2022-08-01T03:53:09;12.00;;;7.43;;
47383;SDS011;33129;52.232;5.192;2022-08-01T03:55:37;10.52;;;7.18;;
47383;SDS011;33129;52.232;5.192;2022-08-01T03:58:04;13.45;;;6.95;;
47383;SDS011;33129;52.232;5.192;2022-08-01T04:00:31;10.90;;;7.05;;
47383;SDS011;33129;52.232;5.192;2022-08-01T04:02:58;13.70;;;8.18;;
47383;SDS011;33129;52.232;5.192;2022-08-01T04:05:24;14.38;;;8.07;;
47383;SDS011;33129;52.232;5.192;2022-08-01T04:07:50;10.88;;;7.03;;
47383;SDS011;33129;52.232;5.192;2022-08-01T04:10:24;11.57;;;6.38;;
47383;SDS011;33129;52.232;5.192;2022-08-01T04:12:50;9.75;;;6.68;;
47383;SDS011;33129;52.232;5.192;2022-08-01T04:15:17;9.32;;;6.55;;
47383;SDS011;33129;52.232;5.192;2022-08-01T04:17:43;9.93;;;5.55;;
47383;SDS011;33129;52.232;5.192;2022-08-01T04:20:09;8.30;;;4.97;;
47383;SDS011;33129;52.232;5.192;2022-08-01T04:22:36;8.95;;;5.10;;
47383;SDS011;33129;52.232;5.192;2022-08-01T04:25:03;9.45;;;5.65;;
47383;SDS011;33129;52.232;5.192;2022-08-01T04:27:42;10.43;;;4.65;;
47383;SDS011;33129;52.232;5.192;2022-08-01T04:30:12;8.05;;;4.13;;
47383;SDS011;33129;52.232;5.192;2022-08-01T04:32:39;7.38;;;4.15;;
47383;SDS011;33129;52.232;5.192;2022-08-01T04:35:09;4.73;;;3.00;;
47383;SDS011;33129;52.232;5.192;2022-08-01T04:37:41;6.30;;;3.42;;
47383;SDS011;33129;52.232;5.192;2022-08-01T04:40:09;6.13;;;3.35;;
47383;SDS011;33129;52.232;5.192;2022-08-01T04:42:36;6.20;;;2.50;;
47383;SDS011;33129;52.232;5.192;2022-08-01T04:45:03;5.40;;;2.30;;
47383;SDS011;33129;52.232;5.192;2022-08-01T04:47:30;4.40;;;2.30;;
47383;SDS011;33129;52.232;5.192;2022-08-01T04:49:56;4.82;;;2.20;;
47383;SDS011;33129;52.232;5.192;2022-08-01T04:52:22;4.30;;;2.20;;
47383;SDS011;33129;52.232;5.192;2022-08-01T04:54:48;3.88;;;2.17;;
47383;SDS011;33129;52.232;5.192;2022-08-01T04:57:14;4.20;;;2.10;;
47383;SDS011;33129;52.232;5.192;2022-08-01T04:59:41;4.30;;;2.30;;
47383;SDS011;33129;52.232;5.192;2022-08-01T05:02:13;4.55;;;2.13;;
47383;SDS011;33129;52.232;5.192;2022-08-01T05:04:43;4.45;;;2.20;;
47383;SDS011;33129;52.232;5.192;2022-08-01T05:07:10;6.47;;;2.30;;
47383;SDS011;33129;52.232;5.192;2022-08-01T05:09:38;4.05;;;2.40;;
47383;SDS011;33129;52.232;5.192;2022-08-01T05:12:10;3.45;;;1.70;;
47383;SDS011;33129;52.232;5.192;2022-08-01T05:14:36;3.17;;;1.73;;
47383;SDS011;33129;52.232;5.192;2022-08-01T05:17:03;3.50;;;1.75;;
47383;SDS011;33129;52.232;5.192;2022-08-01T05:19:35;5.43;;;1.80;;
47383;SDS011;33129;52.232;5.192;2022-08-01T05:22:04;2.83;;;1.30;;
47383;SDS011;33129;52.232;5.192;2022-08-01T05:24:36;3.28;;;1.38;;
47383;SDS011;33129;52.232;5.192;2022-08-01T05:27:04;3.20;;;1.48;;
47383;SDS011;33129;52.232;5.192;2022-08-01T05:29:31;3.65;;;1.60;;
47383;SDS011;33129;52.232;5.192;2022-08-01T05:31:57;3.03;;;1.52;;
47383;SDS011;33129;52.232;5.192;2022-08-01T05:34:24;3.92;;;1.80;;
47383;SDS011;33129;52.232;5.192;2022-08-01T05:36:50;4.43;;;1.95;;
47383;SDS011;33129;52.232;5.192;2022-08-01T05:39:16;6.57;;;3.78;;
47383;SDS011;33129;52.232;5.192;2022-08-01T05:41:42;11.52;;;4.97;;
47383;SDS011;33129;52.232;5.192;2022-08-01T05:44:08;7.93;;;4.28;;
47383;SDS011;33129;52.232;5.192;2022-08-01T05:46:34;7.15;;;3.47;;
47383;SDS011;33129;52.232;5.192;2022-08-01T05:49:02;8.70;;;4.20;;
47383;SDS011;33129;52.232;5.192;2022-08-01T05:51:29;7.55;;;4.05;;
47383;SDS011;33129;52.232;5.192;2022-08-01T05:53:55;8.50;;;4.47;;
47383;SDS011;33129;52.232;5.192;2022-08-01T05:56:21;7.30;;;4.15;;
47383;SDS011;33129;52.232;5.192;2022-08-01T05:58:48;9.48;;;4.00;;
47383;SDS011;33129;52.232;5.192;2022-08-01T06:01:18;11.05;;;4.88;;
47383;SDS011;33129;52.232;5.192;2022-08-01T06:03:44;8.20;;;4.03;;
47383;SDS011;33129;52.232;5.192;2022-08-01T06:06:10;10.95;;;3.85;;
47383;SDS011;33129;52.232;5.192;2022-08-01T06:08:36;8.68;;;3.35;;
47383;SDS011;33129;52.232;5.192;2022-08-01T06:11:02;10.68;;;3.78;;
47383;SDS011;33129;52.232;5.192;2022-08-01T06:13:28;12.40;;;4.15;;
47383;SDS011;33129;52.232;5.192;2022-08-01T06:15:54;10.32;;;3.60;;
47383;SDS011;33129;52.232;5.192;2022-08-01T06:18:20;8.27;;;3.25;;
47383;SDS011;33129;52.232;5.192;2022-08-01T06:20:46;9.88;;;3.83;;
47383;SDS011;33129;52.232;5.192;2022-08-01T06:23:12;8.65;;;4.05;;
47383;SDS011;33129;52.232;5.192;2022-08-01T06:25:40;8.23;;;3.38;;
47383;SDS011;33129;52.232;5.192;2022-08-01T06:28:07;9.32;;;3.60;;
47383;SDS011;33129;52.232;5.192;2022-08-01T06:30:33;9.90;;;3.58;;
47383;SDS011;33129;52.232;5.192;2022-08-01T06:32:59;11.00;;;3.50;;
47383;SDS011;33129;52.232;5.192;2022-08-01T06:35:26;10.27;;;3.53;;
47383;SDS011;33129;52.232;5.192;2022-08-01T06:37:54;16.10;;;3.70;;
47383;SDS011;33129;52.232;5.192;2022-08-01T06:40:21;10.50;;;3.42;;
47383;SDS011;33129;52.232;5.192;2022-08-01T06:42:47;11.32;;;2.88;;
47383;SDS011;33129;52.232;5.192;2022-08-01T06:45:13;13.52;;;3.50;;
47383;SDS011;33129;52.232;5.192;2022-08-01T06:47:40;13.30;;;3.78;;
47383;SDS011;33129;52.232;5.192;2022-08-01T06:50:08;10.57;;;3.40;;
47383;SDS011;33129;52.232;5.192;2022-08-01T06:52:35;9.48;;;3.60;;
47383;SDS011;33129;52.232;5.192;2022-08-01T06:55:02;10.32;;;3.30;;
47383;SDS011;33129;52.232;5.192;2022-08-01T06:57:29;17.58;;;4.15;;
47383;SDS011;33129;52.232;5.192;2022-08-01T06:59:55;14.05;;;4.38;;
47383;SDS011;33129;52.232;5.192;2022-08-01T07:02:21;11.50;;;3.90;;
47383;SDS011;33129;52.232;5.192;2022-08-01T07:04:47;14.48;;;3.47;;
47383;SDS011;33129;52.232;5.192;2022-08-01T07:07:13;13.77;;;3.53;;
47383;SDS011;33129;52.232;5.192;2022-08-01T07:09:39;10.68;;;3.53;;
47383;SDS011;33129;52.232;5.192;2022-08-01T07:12:08;11.65;;;3.47;;
47383;SDS011;33129;52.232;5.192;2022-08-01T07:14:35;11.63;;;2.70;;
47383;SDS011;33129;52.232;5.192;2022-08-01T07:17:00;10.95;;;3.42;;
47383;SDS011;33129;52.232;5.192;2022-08-01T07:19:27;12.13;;;3.78;;
47383;SDS011;33129;52.232;5.192;2022-08-01T07:21:54;7.72;;;2.60;;
47383;SDS011;33129;52.232;5.192;2022-08-01T07:24:20;9.57;;;2.75;;
47383;SDS011;33129;52.232;5.192;2022-08-01T07:26:46;10.32;;;2.90;;
47383;SDS011;33129;52.232;5.192;2022-08-01T07:29:13;8.18;;;2.70;;
47383;SDS011;33129;52.232;5.192;2022-08-01T07:31:39;8.88;;;2.90;;
47383;SDS011;33129;52.232;5.192;2022-08-01T07:34:06;15.38;;;2.90;;
47383;SDS011;33129;52.232;5.192;2022-08-01T07:36:32;9.23;;;2.60;;
47383;SDS011;33129;52.232;5.192;2022-08-01T07:38:57;10.10;;;2.80;;
47383;SDS011;33129;52.232;5.192;2022-08-01T07:41:23;9.52;;;2.85;;
47383;SDS011;33129;52.232;5.192;2022-08-01T07:43:49;11.90;;;3.08;;
47383;SDS011;33129;52.232;5.192;2022-08-01T07:46:15;11.20;;;3.13;;
47383;SDS011;33129;52.232;5.192;2022-08-01T07:48:41;15.95;;;3.70;;
47383;SDS011;33129;52.232;5.192;2022-08-01T07:51:07;12.27;;;2.42;;
47383;SDS011;33129;52.232;5.192;2022-08-01T07:53:35;12.48;;;2.78;;
47383;SDS011;33129;52.232;5.192;2022-08-01T07:56:01;10.38;;;2.50;;
47383;SDS011;33129;52.232;5.192;2022-08-01T07:58:27;7.72;;;2.60;;
47383;SDS011;33129;52.232;5.192;2022-08-01T08:00:53;12.02;;;2.75;;
47383;SDS011;33129;52.232;5.192;2022-08-01T08:03:19;13.35;;;3.13;;
47383;SDS011;33129;52.232;5.192;2022-08-01T08:05:45;23.02;;;3.50;;
47383;SDS011;33129;52.232;5.192;2022-08-01T08:08:10;12.43;;;3.22;;
47383;SDS011;33129;52.232;5.192;2022-08-01T08:10:38;11.65;;;2.22;;
47383;SDS011;33129;52.232;5.192;2022-08-01T08:13:04;13.13;;;2.63;;
47383;SDS011;33129;52.232;5.192;2022-08-01T08:15:30;10.27;;;2.65;;
47383;SDS011;33129;52.232;5.192;2022-08-01T08:17:56;10.75;;;2.63;;
47383;SDS011;33129;52.232;5.192;2022-08-01T08:20:21;8.38;;;2.33;;
47383;SDS011;33129;52.232;5.192;2022-08-01T08:22:50;13.65;;;2.78;;
47383;SDS011;33129;52.232;5.192;2022-08-01T08:25:16;16.17;;;2.72;;
47383;SDS011;33129;52.232;5.192;2022-08-01T08:27:44;10.13;;;2.25;;
47383;SDS011;33129;52.232;5.192;2022-08-01T08:30:11;10.88;;;3.05;;
47383;SDS011;33129;52.232;5.192;2022-08-01T08:32:37;11.52;;;2.58;;
47383;SDS011;33129;52.232;5.192;2022-08-01T08:35:04;7.47;;;2.50;;
47383;SDS011;33129;52.232;5.192;2022-08-01T08:37:31;9.85;;;2.78;;
47383;SDS011;33129;52.232;5.192;2022-08-01T08:39:59;8.90;;;2.67;;
47383;SDS011;33129;52.232;5.192;2022-08-01T08:42:24;10.25;;;2.10;;
47383;SDS011;33129;52.232;5.192;2022-08-01T08:44:50;8.93;;;1.92;;
47383;SDS011;33129;52.232;5.192;2022-08-01T08:47:16;12.35;;;2.92;;
47383;SDS011;33129;52.232;5.192;2022-08-01T08:49:43;10.80;;;2.60;;
47383;SDS011;33129;52.232;5.192;2022-08-01T08:52:09;8.90;;;2.30;;
47383;SDS011;33129;52.232;5.192;2022-08-01T08:54:37;7.78;;;1.98;;
47383;SDS011;33129;52.232;5.192;2022-08-01T08:57:03;13.10;;;2.63;;
47383;SDS011;33129;52.232;5.192;2022-08-01T08:59:30;12.32;;;3.30;;
47383;SDS011;33129;52.232;5.192;2022-08-01T09:01:58;10.40;;;2.45;;
47383;SDS011;33129;52.232;5.192;2022-08-01T09:04:27;9.43;;;2.13;;
47383;SDS011;33129;52.232;5.192;2022-08-01T09:06:53;9.50;;;2.33;;
47383;SDS011;33129;52.232;5.192;2022-08-01T09:09:19;9.10;;;2.33;;
47383;SDS011;33129;52.232;5.192;2022-08-01T09:11:47;9.15;;;2.17;;
47383;SDS011;33129;52.232;5.192;2022-08-01T09:14:20;12.48;;;2.72;;
47383;SDS011;33129;52.232;5.192;2022-08-01T09:17:04;10.48;;;2.20;;
47383;SDS011;33129;52.232;5.192;2022-08-01T09:19:37;12.65;;;2.70;;
47383;SDS011;33129;52.232;5.192;2022-08-01T09:22:14;8.48;;;2.55;;
47383;SDS011;33129;52.232;5.192;2022-08-01T09:24:57;13.55;;;2.95;;
47383;SDS011;33129;52.232;5.192;2022-08-01T09:27:30;12.80;;;2.58;;
47383;SDS011;33129;52.232;5.192;2022-08-01T09:30:08;11.60;;;2.50;;
47383;SDS011;33129;52.232;5.192;2022-08-01T09:35:30;7.65;;;1.88;;
47383;SDS011;33129;52.232;5.192;2022-08-01T09:40:49;11.50;;;1.90;;
47383;SDS011;33129;52.232;5.192;2022-08-01T09:43:24;10.32;;;2.17;;
47383;SDS011;33129;52.232;5.192;2022-08-01T09:45:55;9.73;;;2.15;;
47383;SDS011;33129;52.232;5.192;2022-08-01T09:48:22;9.50;;;2.08;;
47383;SDS011;33129;52.232;5.192;2022-08-01T09:50:49;11.93;;;2.28;;
47383;SDS011;33129;52.232;5.192;2022-08-01T09:53:17;11.55;;;2.05;;
47383;SDS011;33129;52.232;5.192;2022-08-01T09:55:44;8.18;;;1.83;;
47383;SDS011;33129;52.232;5.192;2022-08-01T09:58:10;10.23;;;2.75;;
47383;SDS011;33129;52.232;5.192;2022-08-01T10:00:37;9.88;;;2.50;;
47383;SDS011;33129;52.232;5.192;2022-08-01T10:03:18;10.77;;;2.30;;
47383;SDS011;33129;52.232;5.192;2022-08-01T10:05:48;10.05;;;2.10;;
47383;SDS011;33129;52.232;5.192;2022-08-01T10:08:15;9.77;;;2.90;;
47383;SDS011;33129;52.232;5.192;2022-08-01T10:10:41;14.25;;;2.63;;
47383;SDS011;33129;52.232;5.192;2022-08-01T10:13:08;7.25;;;2.83;;
47383;SDS011;33129;52.232;5.192;2022-08-01T10:15:36;9.73;;;2.75;;
47383;SDS011;33129;52.232;5.192;2022-08-01T10:18:04;10.02;;;2.22;;
47383;SDS011;33129;52.232;5.192;2022-08-01T10:20:32;11.07;;;2.30;;
47383;SDS011;33129;52.232;5.192;2022-08-01T10:22:59;8.55;;;1.85;;
47383;SDS011;33129;52.232;5.192;2022-08-01T10:25:29;10.77;;;2.15;;
47383;SDS011;33129;52.232;5.192;2022-08-01T10:28:07;9.05;;;2.05;;
47383;SDS011;33129;52.232;5.192;2022-08-01T10:30:43;13.10;;;2.40;;
47383;SDS011;33129;52.232;5.192;2022-08-01T10:33:10;10.55;;;2.70;;
47383;SDS011;33129;52.232;5.192;2022-08-01T10:35:38;9.00;;;2.00;;
47383;SDS011;33129;52.232;5.192;2022-08-01T10:38:04;8.40;;;1.85;;
47383;SDS011;33129;52.232;5.192;2022-08-01T10:40:31;7.97;;;1.80;;
47383;SDS011;33129;52.232;5.192;2022-08-01T10:42:57;6.75;;;1.77;;
47383;SDS011;33129;52.232;5.192;2022-08-01T10:45:24;6.00;;;1.55;;
47383;SDS011;33129;52.232;5.192;2022-08-01T10:48:00;6.30;;;1.60;;
47383;SDS011;33129;52.232;5.192;2022-08-01T10:50:40;7.25;;;1.70;;
47383;SDS011;33129;52.232;5.192;2022-08-01T11:01:20;6.88;;;1.60;;
47383;SDS011;33129;52.232;5.192;2022-08-01T11:04:08;9.32;;;1.92;;
47383;SDS011;33129;52.232;5.192;2022-08-01T11:06:43;7.78;;;1.60;;
47383;SDS011;33129;52.232;5.192;2022-08-01T11:12:00;6.28;;;1.67;;
47383;SDS011;33129;52.232;5.192;2022-08-01T11:14:30;9.18;;;2.38;;
47383;SDS011;33129;52.232;5.192;2022-08-01T11:20:15;10.80;;;2.22;;
47383;SDS011;33129;52.232;5.192;2022-08-01T11:30:39;5.15;;;1.45;;
47383;SDS011;33129;52.232;5.192;2022-08-01T11:33:16;5.80;;;1.55;;
47383;SDS011;33129;52.232;5.192;2022-08-01T11:36:16;6.85;;;1.60;;
47383;SDS011;33129;52.232;5.192;2022-08-01T11:38:36;8.45;;;1.60;;
47383;SDS011;33129;52.232;5.192;2022-08-01T11:41:09;4.45;;;1.10;;
47383;SDS011;33129;52.232;5.192;2022-08-01T11:49:46;7.43;;;1.55;;
47383;SDS011;33129;52.232;5.192;2022-08-01T11:52:19;7.35;;;1.50;;
47383;SDS011;33129;52.232;5.192;2022-08-01T11:54:56;8.48;;;1.70;;
47383;SDS011;33129;52.232;5.192;2022-08-01T11:57:32;7.22;;;2.08;;
47383;SDS011;33129;52.232;5.192;2022-08-01T12:00:01;5.88;;;1.73;;
47383;SDS011;33129;52.232;5.192;2022-08-01T12:02:31;8.80;;;3.03;;
47383;SDS011;33129;52.232;5.192;2022-08-01T12:05:12;5.65;;;1.75;;
47383;SDS011;33129;52.232;5.192;2022-08-01T12:07:43;6.85;;;1.45;;
47383;SDS011;33129;52.232;5.192;2022-08-01T12:10:12;4.78;;;1.17;;
47383;SDS011;33129;52.232;5.192;2022-08-01T12:15:21;7.53;;;1.80;;
47383;SDS011;33129;52.232;5.192;2022-08-01T12:17:50;5.15;;;1.10;;
47383;SDS011;33129;52.232;5.192;2022-08-01T12:20:22;7.68;;;1.60;;
47383;SDS011;33129;52.232;5.192;2022-08-01T12:22:53;6.15;;;1.42;;
47383;SDS011;33129;52.232;5.192;2022-08-01T12:25:20;4.90;;;1.42;;
47383;SDS011;33129;52.232;5.192;2022-08-01T12:27:46;5.15;;;1.23;;
47383;SDS011;33129;52.232;5.192;2022-08-01T12:30:14;3.78;;;1.02;;
47383;SDS011;33129;52.232;5.192;2022-08-01T12:32:43;4.32;;;1.02;;
47383;SDS011;33129;52.232;5.192;2022-08-01T12:35:18;5.65;;;1.00;;
47383;SDS011;33129;52.232;5.192;2022-08-01T12:37:51;3.35;;;0.73;;
47383;SDS011;33129;52.232;5.192;2022-08-01T12:40:21;3.83;;;1.20;;
47383;SDS011;33129;52.232;5.192;2022-08-01T12:42:53;5.43;;;1.17;;
47383;SDS011;33129;52.232;5.192;2022-08-01T12:45:23;5.53;;;1.30;;
47383;SDS011;33129;52.232;5.192;2022-08-01T12:47:52;6.47;;;1.50;;
47383;SDS011;33129;52.232;5.192;2022-08-01T12:50:21;4.60;;;1.20;;
47383;SDS011;33129;52.232;5.192;2022-08-01T12:52:49;5.03;;;1.10;;
47383;SDS011;33129;52.232;5.192;2022-08-01T12:55:19;6.55;;;1.23;;
47383;SDS011;33129;52.232;5.192;2022-08-01T12:57:47;4.50;;;1.20;;
47383;SDS011;33129;52.232;5.192;2022-08-01T13:00:24;6.40;;;1.40;;
47383;SDS011;33129;52.232;5.192;2022-08-01T13:03:07;3.38;;;1.23;;
47383;SDS011;33129;52.232;5.192;2022-08-01T13:05:43;3.33;;;1.25;;
47383;SDS011;33129;52.232;5.192;2022-08-01T13:08:14;3.40;;;1.00;;
47383;SDS011;33129;52.232;5.192;2022-08-01T13:10:43;3.83;;;1.17;;
47383;SDS011;33129;52.232;5.192;2022-08-01T13:13:10;4.00;;;0.80;;
47383;SDS011;33129;52.232;5.192;2022-08-01T13:15:37;1.83;;;0.93;;
47383;SDS011;33129;52.232;5.192;2022-08-01T13:21:11;4.28;;;1.20;;
47383;SDS011;33129;52.232;5.192;2022-08-01T13:23:42;4.90;;;1.50;;
47383;SDS011;33129;52.232;5.192;2022-08-01T13:29:11;3.42;;;1.02;;
47383;SDS011;33129;52.232;5.192;2022-08-01T13:31:40;3.50;;;1.08;;
47383;SDS011;33129;52.232;5.192;2022-08-01T13:34:07;4.15;;;1.23;;
47383;SDS011;33129;52.232;5.192;2022-08-01T13:36:34;4.82;;;1.25;;
47383;SDS011;33129;52.232;5.192;2022-08-01T13:39:00;6.03;;;1.38;;
47383;SDS011;33129;52.232;5.192;2022-08-01T13:41:45;5.00;;;1.30;;
47383;SDS011;33129;52.232;5.192;2022-08-01T13:44:12;6.68;;;1.40;;
47383;SDS011;33129;52.232;5.192;2022-08-01T13:46:38;6.60;;;1.33;;
47383;SDS011;33129;52.232;5.192;2022-08-01T13:49:07;3.70;;;1.20;;
47383;SDS011;33129;52.232;5.192;2022-08-01T13:51:34;5.78;;;1.77;;
47383;SDS011;33129;52.232;5.192;2022-08-01T13:54:00;7.63;;;1.70;;
47383;SDS011;33129;52.232;5.192;2022-08-01T13:56:26;4.70;;;1.60;;
47383;SDS011;33129;52.232;5.192;2022-08-01T13:58:53;3.65;;;1.30;;
47383;SDS011;33129;52.232;5.192;2022-08-01T14:01:20;6.88;;;1.52;;
47383;SDS011;33129;52.232;5.192;2022-08-01T14:03:47;6.53;;;1.50;;
47383;SDS011;33129;52.232;5.192;2022-08-01T14:06:13;5.35;;;1.63;;
47383;SDS011;33129;52.232;5.192;2022-08-01T14:08:40;5.22;;;1.27;;
47383;SDS011;33129;52.232;5.192;2022-08-01T14:11:07;4.80;;;1.30;;
47383;SDS011;33129;52.232;5.192;2022-08-01T14:13:33;6.07;;;1.45;;
47383;SDS011;33129;52.232;5.192;2022-08-01T14:15:59;7.82;;;1.60;;
47383;SDS011;33129;52.232;5.192;2022-08-01T14:18:25;5.10;;;1.48;;
47383;SDS011;33129;52.232;5.192;2022-08-01T14:20:51;6.03;;;1.60;;
47383;SDS011;33129;52.232;5.192;2022-08-01T14:23:17;4.50;;;1.20;;
47383;SDS011;33129;52.232;5.192;2022-08-01T14:25:43;6.20;;;1.58;;
47383;SDS011;33129;52.232;5.192;2022-08-01T14:28:09;5.57;;;1.17;;
47383;SDS011;33129;52.232;5.192;2022-08-01T14:30:35;5.47;;;1.05;;
47383;SDS011;33129;52.232;5.192;2022-08-01T14:33:01;5.03;;;0.90;;
47383;SDS011;33129;52.232;5.192;2022-08-01T14:35:27;3.42;;;1.13;;
47383;SDS011;33129;52.232;5.192;2022-08-01T14:37:53;4.78;;;1.30;;
47383;SDS011;33129;52.232;5.192;2022-08-01T14:40:19;8.35;;;1.65;;
47383;SDS011;33129;52.232;5.192;2022-08-01T14:42:45;5.60;;;1.10;;
47383;SDS011;33129;52.232;5.192;2022-08-01T14:45:11;5.65;;;1.13;;
47383;SDS011;33129;52.232;5.192;2022-08-01T14:47:38;4.55;;;1.15;;
47383;SDS011;33129;52.232;5.192;2022-08-01T14:50:06;4.20;;;1.20;;
47383;SDS011;33129;52.232;5.192;2022-08-01T14:52:36;4.93;;;1.13;;
47383;SDS011;33129;52.232;5.192;2022-08-01T14:55:04;5.10;;;1.33;;
47383;SDS011;33129;52.232;5.192;2022-08-01T14:57:32;5.25;;;1.00;;
47383;SDS011;33129;52.232;5.192;2022-08-01T14:59:58;4.05;;;1.00;;
47383;SDS011;33129;52.232;5.192;2022-08-01T15:02:24;3.92;;;1.10;;
47383;SDS011;33129;52.232;5.192;2022-08-01T15:04:50;4.30;;;1.02;;
47383;SDS011;33129;52.232;5.192;2022-08-01T15:07:16;6.18;;;1.10;;
47383;SDS011;33129;52.232;5.192;2022-08-01T15:09:43;5.13;;;0.80;;
47383;SDS011;33129;52.232;5.192;2022-08-01T15:12:09;3.97;;;1.10;;
47383;SDS011;33129;52.232;5.192;2022-08-01T15:14:35;4.60;;;1.35;;
47383;SDS011;33129;52.232;5.192;2022-08-01T15:17:17;5.43;;;1.10;;
47383;SDS011;33129;52.232;5.192;2022-08-01T15:19:57;4.88;;;1.02;;
47383;SDS011;33129;52.232;5.192;2022-08-01T15:22:31;4.90;;;1.10;;
47383;SDS011;33129;52.232;5.192;2022-08-01T15:24:57;4.47;;;1.40;;
47383;SDS011;33129;52.232;5.192;2022-08-01T15:27:25;5.30;;;1.67;;
47383;SDS011;33129;52.232;5.192;2022-08-01T15:29:53;5.97;;;1.45;;
47383;SDS011;33129;52.232;5.192;2022-08-01T15:32:21;5.72;;;1.30;;
47383;SDS011;33129;52.232;5.192;2022-08-01T15:34:47;7.57;;;1.23;;
47383;SDS011;33129;52.232;5.192;2022-08-01T15:37:13;4.50;;;0.90;;
47383;SDS011;33129;52.232;5.192;2022-08-01T15:39:39;7.93;;;1.33;;
47383;SDS011;33129;52.232;5.192;2022-08-01T15:42:10;7.63;;;1.70;;
47383;SDS011;33129;52.232;5.192;2022-08-01T15:44:37;9.20;;;1.48;;
47383;SDS011;33129;52.232;5.192;2022-08-01T15:47:04;5.05;;;1.08;;